Time;durP1;ratioP1;P1;durP2;ratioP2;P2;SDS_P1;SDS_P2;PMS_P1;PMS_P2;Temp;Humidity;BMP_temperature;BMP_pressure;BME280_temperature;BME280_humidity;BME280_pressure;Samples;Min_cycle;Max_cycle;Signal;HPM_P1;HPM_P2
2022/11/27 00:01:13;;;;;;;20.42;8.57;;;2.70;84.10;;;;;;4977226;28;20030;-85
2022/11/27 00:03:40;;;;;;;13.43;7.57;;;2.60;83.70;;;;;;4977187;28;20029;-84
2022/11/27 00:06:06;;;;;;;13.95;8.10;;;2.50;83.70;;;;;;4976773;28;20030;-85
2022/11/27 00:08:32;;;;;;;14.88;8.52;;;2.50;83.80;;;;;;4994204;28;20027;-87
2022/11/27 00:11:13;;;;;;;17.73;8.82;;;2.50;84.40;;;;;;4976737;28;20023;-84
2022/11/27 00:13:39;;;;;;;14.23;8.10;;;2.50;84.30;;;;;;4977520;28;20034;-84
2022/11/27 00:16:05;;;;;;;16.70;8.93;;;2.50;85.10;;;;;;4976879;28;20029;-85
2022/11/27 00:18:32;;;;;;;16.70;9.50;;;2.50;84.20;;;;;;4977407;28;20483;-90
2022/11/27 00:21:09;;;;;;;21.27;9.98;;;2.60;84.10;;;;;;4980242;28;20030;-91
2022/11/27 00:23:35;;;;;;;17.92;9.98;;;2.60;83.70;;;;;;4973127;28;20078;-90
2022/11/27 00:26:01;;;;;;;15.07;8.70;;;2.50;84.50;;;;;;4961773;28;20395;-84
2022/11/27 00:28:27;;;;;;;18.45;9.00;;;2.40;84.80;;;;;;4969312;28;20045;-87
2022/11/27 00:30:59;;;;;;;16.77;8.85;;;2.40;84.50;;;;;;4986046;28;20073;-88
2022/11/27 00:33:25;;;;;;;15.38;8.20;;;2.40;84.60;;;;;;4970198;28;20109;-89
2022/11/27 00:35:50;;;;;;;14.30;7.38;;;2.40;85.10;;;;;;4962073;28;20534;-87
2022/11/27 00:38:16;;;;;;;21.55;8.07;;;2.40;85.40;;;;;;4962541;28;20118;-88
2022/11/27 00:40:41;;;;;;;17.92;7.80;;;2.50;85.60;;;;;;4962932;28;20027;-91
2022/11/27 00:43:07;;;;;;;19.60;7.72;;;2.60;85.50;;;;;;4962411;28;20031;-87
2022/11/27 00:45:33;;;;;;;16.40;7.72;;;2.60;85.10;;;;;;4963503;28;20023;-89
2022/11/27 00:47:58;;;;;;;11.88;6.93;;;2.60;84.80;;;;;;4963859;28;20045;-88
2022/11/27 00:50:24;;;;;;;16.75;7.20;;;2.70;84.70;;;;;;4964338;28;20023;-90
2022/11/27 00:52:49;;;;;;;13.07;6.93;;;2.60;84.60;;;;;;4963921;28;20023;-86
2022/11/27 00:55:15;;;;;;;17.45;8.00;;;2.60;84.70;;;;;;4963996;28;20034;-86
2022/11/27 00:57:41;;;;;;;11.57;7.00;;;2.60;85.20;;;;;;4961355;28;20030;-86
2022/11/27 01:00:07;;;;;;;23.60;7.55;;;2.50;85.50;;;;;;4963229;28;20042;-88
2022/11/27 01:02:33;;;;;;;16.35;7.53;;;2.60;85.30;;;;;;4966162;28;20030;-87
2022/11/27 01:04:58;;;;;;;15.55;7.68;;;2.60;85.70;;;;;;4963801;28;20026;-86
2022/11/27 01:07:25;;;;;;;17.20;7.28;;;2.60;85.00;;;;;;4961438;28;20046;-87
2022/11/27 01:09:51;;;;;;;17.75;7.07;;;2.50;85.50;;;;;;4978757;28;20027;-87
2022/11/27 01:12:16;;;;;;;14.68;7.30;;;2.50;85.70;;;;;;4961343;28;20077;-87
2022/11/27 01:14:42;;;;;;;16.30;6.60;;;2.60;85.80;;;;;;4961542;28;20073;-86
2022/11/27 01:17:07;;;;;;;16.45;7.22;;;2.60;85.70;;;;;;4984922;28;20026;-86
2022/11/27 01:19:33;;;;;;;16.35;6.85;;;2.60;85.80;;;;;;4984099;28;20041;-86
2022/11/27 01:21:59;;;;;;;12.50;6.03;;;2.70;85.90;;;;;;4969114;28;20027;-86
2022/11/27 01:24:24;;;;;;;15.00;6.43;;;2.70;85.70;;;;;;4962765;28;20069;-86
2022/11/27 01:26:50;;;;;;;15.02;5.90;;;2.80;85.60;;;;;;4964075;28;20039;-86
2022/11/27 01:29:15;;;;;;;9.48;5.50;;;2.80;85.50;;;;;;4962113;28;20391;-86
2022/11/27 01:31:41;;;;;;;10.32;5.22;;;2.80;85.50;;;;;;4959588;28;20031;-86
2022/11/27 01:34:12;;;;;;;13.25;5.65;;;2.80;85.40;;;;;;4960231;28;20034;-89
2022/11/27 01:36:37;;;;;;;14.57;6.07;;;2.90;85.30;;;;;;4961105;28;20069;-88
2022/11/27 01:39:04;;;;;;;10.40;5.28;;;2.90;85.20;;;;;;4966184;28;20026;-88
2022/11/27 01:41:35;;;;;;;11.48;5.80;;;2.90;85.00;;;;;;4971254;28;20023;-89
2022/11/27 01:44:22;;;;;;;16.63;6.38;;;2.90;85.10;;;;;;4961349;28;20027;-89
2022/11/27 01:46:54;;;;;;;11.45;5.47;;;2.80;85.00;;;;;;4963737;28;20035;-90
2022/11/27 01:49:46;;;;;;;10.27;5.85;;;2.90;84.90;;;;;;4961113;28;20506;-89
2022/11/27 01:52:24;;;;;;;9.70;5.00;;;2.90;85.00;;;;;;4961292;28;20098;-89
2022/11/27 01:54:56;;;;;;;10.40;4.78;;;2.90;84.90;;;;;;4960527;28;20029;-89
2022/11/27 01:57:27;;;;;;;11.65;4.95;;;3.00;85.60;;;;;;4960648;28;20022;-89
2022/11/27 01:59:56;;;;;;;11.18;5.10;;;3.00;84.50;;;;;;4960319;28;20019;-89
2022/11/27 02:02:22;;;;;;;11.98;5.07;;;3.00;85.40;;;;;;4961252;28;20189;-88
2022/11/27 02:04:48;;;;;;;10.77;4.68;;;3.00;84.60;;;;;;4959925;28;20487;-88
2022/11/27 02:07:13;;;;;;;8.43;4.88;;;3.10;84.60;;;;;;4977363;28;20479;-87
2022/11/27 02:09:39;;;;;;;8.80;3.70;;;3.10;84.80;;;;;;4959933;28;20057;-88
2022/11/27 02:12:25;;;;;;;12.77;4.72;;;3.10;84.50;;;;;;4960008;28;20026;-88
2022/11/27 02:15:08;;;;;;;6.53;2.90;;;3.20;84.40;;;;;;4959343;28;20595;-84
2022/11/27 02:17:55;;;;;;;6.05;3.80;;;3.10;84.20;;;;;;4958401;28;20152;-85
2022/11/27 02:20:38;;;;;;;7.95;3.85;;;3.20;84.10;;;;;;4958438;28;20470;-84
2022/11/27 02:23:20;;;;;;;9.60;3.92;;;3.20;84.00;;;;;;4977501;28;20439;-84
2022/11/27 02:26:12;;;;;;;10.68;4.15;;;3.20;83.80;;;;;;4994828;28;20041;-85
2022/11/27 02:28:59;;;;;;;11.70;4.05;;;3.20;83.60;;;;;;4995079;28;20037;-86
2022/11/27 02:31:38;;;;;;;8.13;3.53;;;3.30;83.60;;;;;;4981281;28;20076;-87
2022/11/27 02:34:22;;;;;;;8.43;3.72;;;3.30;83.60;;;;;;4981512;28;20066;-86
2022/11/27 02:37:10;;;;;;;6.23;2.50;;;3.30;83.40;;;;;;4982913;28;20030;-87
2022/11/27 02:39:47;;;;;;;9.25;3.72;;;3.40;83.30;;;;;;4978115;28;20903;-87
2022/11/27 02:42:18;;;;;;;7.88;3.30;;;3.50;83.20;;;;;;4977622;28;20034;-85
2022/11/27 02:44:49;;;;;;;7.05;3.33;;;3.40;83.20;;;;;;4977584;28;20022;-86
2022/11/27 02:47:16;;;;;;;7.20;3.20;;;3.40;83.10;;;;;;4994775;28;20031;-85
2022/11/27 02:49:43;;;;;;;6.57;3.42;;;3.40;82.90;;;;;;4976496;28;20378;-85
2022/11/27 02:52:11;;;;;;;7.13;3.30;;;3.50;83.00;;;;;;4977144;28;20501;-84
2022/11/27 02:54:40;;;;;;;11.55;4.68;;;3.50;82.80;;;;;;4977480;28;20092;-86
2022/11/27 02:57:08;;;;;;;6.78;3.35;;;3.50;82.70;;;;;;4978235;28;20076;-86
2022/11/27 02:59:35;;;;;;;9.10;3.63;;;3.50;82.60;;;;;;4977776;28;20023;-86
2022/11/27 03:02:09;;;;;;;7.82;3.47;;;3.50;82.70;;;;;;4977151;28;20031;-84
2022/11/27 03:04:46;;;;;;;4.30;2.80;;;3.50;82.60;;;;;;4977325;28;20029;-84
2022/11/27 03:07:21;;;;;;;7.93;3.38;;;3.50;82.50;;;;;;4976751;28;20045;-83
2022/11/27 03:09:48;;;;;;;;;;;3.50;82.40;;;;;;4977505;28;20109;-83
2022/11/27 03:12:16;;;;;;;11.05;3.05;;;3.50;82.30;;;;;;4989318;28;19909;-83
2022/11/27 03:14:44;;;;;;;6.25;2.85;;;3.50;82.10;;;;;;5001429;28;20082;-83
2022/11/27 03:17:23;;;;;;;9.93;3.17;;;3.50;82.00;;;;;;5001658;28;20018;-84
2022/11/27 03:20:02;;;;;;;9.13;2.90;;;3.50;81.90;;;;;;5001241;28;20077;-83
2022/11/27 03:22:27;;;;;;;8.90;3.22;;;3.50;81.80;;;;;;4978160;28;20054;-83
2022/11/27 03:24:54;;;;;;;5.07;2.97;;;3.50;82.00;;;;;;4977448;28;20054;-86
2022/11/27 03:27:27;;;;;;;8.45;3.17;;;3.50;81.90;;;;;;4978241;28;20041;-89
2022/11/27 03:29:59;;;;;;;8.88;3.03;;;3.50;81.90;;;;;;4979025;28;20027;-89
2022/11/27 03:32:26;;;;;;;8.85;3.20;;;3.50;81.90;;;;;;4982594;28;20030;-89
2022/11/27 03:34:52;;;;;;;6.80;3.22;;;3.50;81.80;;;;;;4979849;28;20479;-89
2022/11/27 03:37:18;;;;;;;7.75;3.50;;;3.50;82.70;;;;;;4978113;28;20037;-88
2022/11/27 03:39:43;;;;;;;4.60;2.63;;;3.40;81.70;;;;;;4977950;28;20456;-88
2022/11/27 03:42:31;;;;;;;7.05;2.65;;;3.40;81.80;;;;;;4978099;28;20093;-89
2022/11/27 03:45:45;;;;;;;5.30;2.78;;;3.40;81.90;;;;;;4979476;28;20117;-89
2022/11/27 03:48:32;;;;;;;6.97;3.28;;;3.40;81.70;;;;;;4957286;28;20159;-89
2022/11/27 03:51:09;;;;;;;4.47;2.80;;;3.50;81.80;;;;;;4977532;28;20027;-88
2022/11/27 03:54:09;;;;;;;4.80;2.80;;;3.50;81.60;;;;;;4977510;28;20031;-88
2022/11/27 03:56:43;;;;;;;6.40;2.97;;;3.50;81.60;;;;;;4947032;28;20041;-89
2022/11/27 03:59:22;;;;;;;7.82;2.78;;;3.50;81.40;;;;;;4978082;28;20050;-89
2022/11/27 04:01:48;;;;;;;7.15;3.13;;;3.40;81.40;;;;;;4980902;28;20033;-88
2022/11/27 04:04:14;;;;;;;9.57;3.10;;;3.40;81.30;;;;;;4999014;28;20394;-88
2022/11/27 04:06:40;;;;;;;7.13;3.13;;;3.40;81.30;;;;;;4982712;28;20092;-92
2022/11/27 04:09:05;;;;;;;6.30;3.13;;;3.40;81.30;;;;;;4999238;28;20530;-91
2022/11/27 04:11:31;;;;;;;6.57;3.00;;;3.40;81.20;;;;;;4981517;28;20404;-90
2022/11/27 04:13:57;;;;;;;6.65;3.38;;;3.40;81.10;;;;;;4981828;28;20116;-91
2022/11/27 04:16:22;;;;;;;8.52;3.33;;;3.30;81.10;;;;;;4981156;28;20077;-86
2022/11/27 04:18:48;;;;;;;12.32;3.50;;;3.20;81.20;;;;;;4981180;28;20029;-88
2022/11/27 04:21:15;;;;;;;6.97;3.15;;;3.20;81.30;;;;;;4998077;28;20022;-88
2022/11/27 04:23:41;;;;;;;10.55;3.50;;;3.20;81.40;;;;;;4981620;28;20038;-89
2022/11/27 04:26:07;;;;;;;10.90;3.65;;;3.20;81.60;;;;;;4980638;28;20038;-88
2022/11/27 04:28:32;;;;;;;7.15;3.33;;;3.10;81.80;;;;;;4981082;28;20044;-87
2022/11/27 04:30:58;;;;;;;10.90;4.00;;;3.10;81.90;;;;;;4998229;28;20089;-86
2022/11/27 04:33:24;;;;;;;7.85;4.00;;;3.00;82.00;;;;;;4980506;28;20030;-94
2022/11/27 04:35:50;;;;;;;9.82;3.78;;;2.90;82.20;;;;;;4980642;28;20026;-84
2022/11/27 04:38:16;;;;;;;8.55;4.22;;;2.90;82.40;;;;;;4980017;28;20057;-87
2022/11/27 04:40:41;;;;;;;10.35;4.00;;;2.80;82.40;;;;;;4981163;28;20109;-87
2022/11/27 04:43:07;;;;;;;10.70;4.63;;;2.90;82.60;;;;;;4981155;28;20031;-88
2022/11/27 04:45:33;;;;;;;8.10;4.05;;;2.90;82.60;;;;;;4981333;28;20167;-90
2022/11/27 04:47:58;;;;;;;9.85;4.05;;;2.90;82.40;;;;;;4981096;28;20030;-89
2022/11/27 04:50:24;;;;;;;9.50;4.07;;;2.90;82.40;;;;;;4981807;28;20430;-89
2022/11/27 04:52:49;;;;;;;10.18;4.07;;;2.80;82.40;;;;;;4980743;28;20026;-89
2022/11/27 04:55:15;;;;;;;6.78;4.15;;;2.80;82.10;;;;;;4981320;28;20041;-88
2022/11/27 04:57:40;;;;;;;8.35;4.25;;;2.80;82.40;;;;;;4981465;28;20093;-89
2022/11/27 05:00:07;;;;;;;9.13;3.88;;;2.70;82.40;;;;;;4981061;28;20030;-89
2022/11/27 05:02:33;;;;;;;7.38;4.00;;;2.80;82.40;;;;;;4982962;28;20482;-88
2022/11/27 05:04:58;;;;;;;7.88;3.90;;;2.70;82.50;;;;;;4980765;28;20034;-87
2022/11/27 05:07:24;;;;;;;7.57;4.03;;;2.70;82.50;;;;;;4980923;28;20454;-86
2022/11/27 05:09:50;;;;;;;11.25;4.65;;;2.70;82.60;;;;;;4997557;28;20037;-87
2022/11/27 05:12:15;;;;;;;9.95;5.15;;;2.60;82.70;;;;;;4979194;28;20026;-86
2022/11/27 05:14:41;;;;;;;8.60;4.40;;;2.70;82.90;;;;;;4980452;28;20363;-86
2022/11/27 05:17:08;;;;;;;7.38;3.67;;;2.70;83.00;;;;;;4980141;28;20022;-85
2022/11/27 05:19:37;;;;;;;14.90;6.07;;;2.70;82.70;;;;;;4980772;28;20120;-89
2022/11/27 05:22:03;;;;;;;8.80;4.28;;;2.70;82.50;;;;;;4998253;28;20475;-88
2022/11/27 05:24:28;;;;;;;7.25;3.15;;;2.70;81.50;;;;;;4980173;28;20101;-91
2022/11/27 05:26:55;;;;;;;6.53;3.13;;;2.50;79.80;;;;;;4982043;28;20471;-89
2022/11/27 05:29:21;;;;;;;7.85;3.97;;;2.50;79.20;;;;;;4981430;28;20071;-88
2022/11/27 05:31:47;;;;;;;5.63;2.78;;;2.50;78.50;;;;;;5001944;28;20027;-89
2022/11/27 05:34:13;;;;;;;7.78;3.58;;;2.30;78.20;;;;;;4992207;28;20049;-89
2022/11/27 05:36:40;;;;;;;6.22;3.50;;;2.20;78.70;;;;;;5000342;28;20033;-89
2022/11/27 05:39:07;;;;;;;8.68;3.53;;;2.10;79.20;;;;;;4996010;28;20031;-87
2022/11/27 05:41:34;;;;;;;5.97;3.10;;;2.20;79.30;;;;;;4979986;28;20545;-87
2022/11/27 05:43:59;;;;;;;7.82;3.50;;;2.20;79.20;;;;;;4980258;28;20022;-87
2022/11/27 05:46:25;;;;;;;5.60;3.10;;;2.10;79.40;;;;;;4979375;28;20022;-87
2022/11/27 05:48:50;;;;;;;7.28;3.22;;;2.10;79.40;;;;;;4979776;28;20034;-88
2022/11/27 05:51:17;;;;;;;6.72;3.58;;;2.20;79.70;;;;;;4978593;28;20030;-85
2022/11/27 05:53:43;;;;;;;8.05;3.95;;;2.20;79.70;;;;;;4978642;28;20084;-86
2022/11/27 05:56:14;;;;;;;6.15;3.20;;;2.20;79.80;;;;;;4995749;28;20019;-86
2022/11/27 05:58:41;;;;;;;6.13;3.50;;;2.10;79.80;;;;;;4978294;28;20026;-86
2022/11/27 06:01:08;;;;;;;8.85;4.85;;;2.10;80.00;;;;;;4978334;28;20080;-86
2022/11/27 06:03:34;;;;;;;10.57;4.75;;;2.10;80.50;;;;;;4978307;28;20026;-86
2022/11/27 06:06:05;;;;;;;11.13;4.57;;;2.20;80.90;;;;;;4980433;28;20058;-85
2022/11/27 06:08:31;;;;;;;5.93;3.15;;;2.20;80.80;;;;;;4982406;28;20038;-86
2022/11/27 06:10:56;;;;;;;7.07;4.07;;;2.20;80.50;;;;;;4982755;28;20037;-85
2022/11/27 06:13:22;;;;;;;5.97;3.63;;;2.20;80.40;;;;;;4997995;28;20030;-85
2022/11/27 06:15:47;;;;;;;5.97;3.22;;;2.20;80.40;;;;;;4979184;28;20458;-85
2022/11/27 06:18:13;;;;;;;6.57;3.38;;;2.20;80.40;;;;;;4978278;28;20058;-86
2022/11/27 06:20:39;;;;;;;7.05;3.20;;;2.20;80.50;;;;;;4978121;28;20363;-85
2022/11/27 06:23:04;;;;;;;10.02;4.35;;;2.20;80.40;;;;;;4978039;28;20027;-85
2022/11/27 06:25:30;;;;;;;9.98;4.40;;;2.30;80.50;;;;;;4977658;28;20037;-85
2022/11/27 06:27:56;;;;;;;8.35;3.97;;;2.30;80.60;;;;;;4994963;28;20039;-86
2022/11/27 06:30:22;;;;;;;5.72;3.63;;;2.30;80.50;;;;;;4995426;28;20030;-86
2022/11/27 06:32:47;;;;;;;6.80;3.65;;;2.40;80.40;;;;;;4995329;28;20100;-88
2022/11/27 06:35:13;;;;;;;7.03;3.63;;;2.30;80.40;;;;;;4978761;28;20042;-87
2022/11/27 06:37:38;;;;;;;9.30;4.60;;;2.30;80.40;;;;;;4978774;28;20489;-88
2022/11/27 06:40:05;;;;;;;8.77;4.82;;;2.40;80.40;;;;;;4978556;28;20036;-88
2022/11/27 06:42:30;;;;;;;10.65;5.40;;;2.30;79.90;;;;;;4978179;28;20030;-87
2022/11/27 06:44:56;;;;;;;8.40;5.22;;;2.30;79.60;;;;;;4978180;28;20029;-90
2022/11/27 06:47:22;;;;;;;6.18;4.35;;;2.20;78.70;;;;;;4978469;28;20026;-91
2022/11/27 06:49:48;;;;;;;11.00;6.65;;;2.20;78.80;;;;;;4978451;28;20034;-92
2022/11/27 06:52:13;;;;;;;11.25;6.80;;;2.10;78.40;;;;;;4995325;28;20078;-91
2022/11/27 06:54:39;;;;;;;9.98;5.22;;;1.90;78.50;;;;;;4977741;28;20030;-86
2022/11/27 06:57:04;;;;;;;7.53;4.72;;;1.90;79.60;;;;;;4994956;28;20471;-87
2022/11/27 06:59:30;;;;;;;11.65;5.55;;;1.80;81.10;;;;;;4977664;28;20402;-86
2022/11/27 07:01:56;;;;;;;6.93;4.65;;;1.80;81.50;;;;;;4977077;28;20031;-82
2022/11/27 07:04:21;;;;;;;6.93;4.80;;;1.90;81.40;;;;;;4994303;28;20023;-82
2022/11/27 07:06:47;;;;;;;7.82;4.57;;;2.00;81.10;;;;;;4976701;28;20038;-82
2022/11/27 07:09:13;;;;;;;12.57;5.65;;;2.00;80.80;;;;;;4976650;28;20040;-83
2022/11/27 07:11:38;;;;;;;12.00;5.30;;;2.10;80.60;;;;;;4976760;28;20057;-84
2022/11/27 07:14:05;;;;;;;9.57;5.00;;;2.20;80.30;;;;;;4994633;28;20475;-84
2022/11/27 07:16:34;;;;;;;9.85;5.22;;;2.30;80.30;;;;;;4976797;28;20026;-84
2022/11/27 07:19:02;;;;;;;7.82;4.57;;;2.40;80.80;;;;;;4976759;28;20033;-87
2022/11/27 07:21:28;;;;;;;7.20;4.18;;;2.50;79.60;;;;;;4977580;28;20025;-83
2022/11/27 07:23:57;;;;;;;11.38;4.20;;;2.70;79.30;;;;;;4994681;28;20046;-88
2022/11/27 07:26:25;;;;;;;11.88;4.70;;;2.70;79.00;;;;;;4995127;28;20117;-87
2022/11/27 07:28:52;;;;;;;9.27;4.65;;;2.90;79.70;;;;;;4977556;28;20037;-86
2022/11/27 07:31:23;;;;;;;6.82;4.40;;;2.90;78.30;;;;;;4991828;28;20106;-83
2022/11/27 07:33:51;;;;;;;7.75;4.35;;;3.10;78.20;;;;;;5001437;28;20075;-83
2022/11/27 07:36:24;;;;;;;12.00;6.90;;;3.20;77.60;;;;;;5002672;28;20026;-84
2022/11/27 07:38:50;;;;;;;8.30;4.10;;;3.30;76.90;;;;;;4985895;28;20077;-86
2022/11/27 07:41:16;;;;;;;4.55;3.65;;;3.30;76.10;;;;;;4983920;28;20029;-86
2022/11/27 07:43:43;;;;;;;9.73;3.67;;;3.30;75.90;;;;;;4981354;28;20026;-85
2022/11/27 07:46:15;;;;;;;6.57;3.78;;;3.30;74.90;;;;;;4981488;28;20056;-86
2022/11/27 07:48:41;;;;;;;5.25;3.00;;;3.30;76.40;;;;;;4981432;28;20031;-87
2022/11/27 07:51:08;;;;;;;6.65;3.42;;;3.30;75.20;;;;;;4998835;28;20089;-88
2022/11/27 07:53:39;;;;;;;3.53;2.47;;;3.40;74.70;;;;;;4981795;28;20026;-86
2022/11/27 07:56:06;;;;;;;4.15;2.70;;;3.40;73.80;;;;;;4981599;28;20077;-89
2022/11/27 07:58:32;;;;;;;10.50;4.75;;;3.50;73.50;;;;;;4982007;28;20026;-87
2022/11/27 08:00:58;;;;;;;11.35;4.18;;;3.50;73.50;;;;;;4981625;28;20413;-87
2022/11/27 08:03:24;;;;;;;6.18;3.03;;;3.50;73.60;;;;;;5003536;28;20027;-83
2022/11/27 08:05:49;;;;;;;5.60;2.70;;;3.60;72.80;;;;;;4981666;28;20086;-87
2022/11/27 08:08:15;;;;;;;3.95;2.33;;;3.60;71.40;;;;;;4981555;28;20116;-86
2022/11/27 08:10:41;;;;;;;5.20;3.00;;;3.70;70.70;;;;;;4981864;28;20032;-89
2022/11/27 08:13:06;;;;;;;7.03;2.80;;;3.90;69.90;;;;;;4981107;28;20040;-88
2022/11/27 08:15:33;;;;;;;5.40;2.70;;;4.00;69.60;;;;;;4980740;28;20054;-85
2022/11/27 08:17:59;;;;;;;3.80;1.83;;;4.10;68.60;;;;;;4981021;28;20537;-89
2022/11/27 08:20:24;;;;;;;4.15;2.13;;;4.20;66.70;;;;;;4981613;28;20034;-85
2022/11/27 08:22:50;;;;;;;5.72;2.38;;;4.30;66.40;;;;;;4980783;28;20026;-87
2022/11/27 08:25:16;;;;;;;3.90;2.55;;;4.40;67.40;;;;;;4980774;28;20073;-87
2022/11/27 08:27:42;;;;;;;10.50;6.72;;;4.50;65.40;;;;;;4980996;28;20033;-88
2022/11/27 08:30:08;;;;;;;13.15;6.20;;;4.70;66.70;;;;;;4981139;28;20041;-91
2022/11/27 08:32:37;;;;;;;11.48;6.47;;;4.80;66.70;;;;;;4980762;28;20029;-88
2022/11/27 08:35:04;;;;;;;14.70;8.30;;;5.00;67.20;;;;;;4980103;28;20032;-86
2022/11/27 08:37:29;;;;;;;20.90;11.35;;;5.10;66.60;;;;;;4980861;28;20143;-86
2022/11/27 08:39:55;;;;;;;16.27;10.70;;;5.10;67.50;;;;;;4980341;28;20030;-85
2022/11/27 08:42:20;;;;;;;16.55;8.18;;;5.10;67.70;;;;;;4980636;28;20113;-85
2022/11/27 08:44:46;;;;;;;12.40;6.35;;;5.10;69.10;;;;;;4980921;28;20243;-81
2022/11/27 08:47:14;;;;;;;13.38;6.50;;;5.30;74.30;;;;;;4997926;28;20018;-86
2022/11/27 08:49:39;;;;;;;15.23;7.10;;;5.60;72.00;;;;;;4998641;28;20022;-85
2022/11/27 08:52:05;;;;;;;10.05;6.63;;;5.80;69.50;;;;;;4997196;28;20025;-83
2022/11/27 08:54:31;;;;;;;13.48;6.70;;;5.80;65.90;;;;;;4978719;28;20382;-85
2022/11/27 08:56:56;;;;;;;10.20;6.63;;;5.70;65.60;;;;;;4979186;28;20030;-85
2022/11/27 08:59:22;;;;;;;9.88;6.32;;;5.70;65.20;;;;;;4996244;28;20034;-86
2022/11/27 09:01:47;;;;;;;10.68;5.47;;;5.70;65.40;;;;;;4978819;28;20022;-85
2022/11/27 09:04:13;;;;;;;8.32;5.03;;;5.80;65.60;;;;;;4978963;28;20026;-85
2022/11/27 09:06:40;;;;;;;8.80;5.13;;;5.80;65.40;;;;;;4996495;28;20057;-85
2022/11/27 09:09:05;;;;;;;12.27;6.20;;;5.80;65.30;;;;;;4978757;28;20065;-85
2022/11/27 09:11:33;;;;;;;11.38;6.35;;;5.80;65.80;;;;;;4979106;28;20058;-85
2022/11/27 09:13:59;;;;;;;10.30;6.18;;;5.80;65.70;;;;;;4996039;28;20034;-85
2022/11/27 09:16:25;;;;;;;10.70;6.97;;;5.50;67.10;;;;;;4978717;28;20025;-85
2022/11/27 09:18:52;;;;;;;12.73;6.90;;;5.30;67.40;;;;;;4978237;28;20130;-84
2022/11/27 09:21:20;;;;;;;12.38;8.27;;;5.20;68.70;;;;;;4978465;28;20026;-85
2022/11/27 09:23:46;;;;;;;12.88;7.28;;;5.10;70.00;;;;;;4977877;28;20512;-84
2022/11/27 09:26:15;;;;;;;12.48;5.93;;;5.10;69.90;;;;;;4978493;28;20030;-84
2022/11/27 09:28:42;;;;;;;11.32;6.40;;;5.30;70.30;;;;;;4978316;28;20034;-85
2022/11/27 09:31:09;;;;;;;12.77;7.03;;;5.70;69.50;;;;;;4995766;28;20498;-84
2022/11/27 09:33:37;;;;;;;8.27;5.47;;;6.30;67.80;;;;;;4969897;28;20037;-84
2022/11/27 09:36:08;;;;;;;11.30;6.57;;;6.60;65.50;;;;;;4968028;28;20023;-84
2022/11/27 09:38:34;;;;;;;10.57;6.90;;;7.00;64.40;;;;;;4966873;28;20023;-85
2022/11/27 09:41:24;;;;;;;10.95;6.65;;;7.30;63.10;;;;;;4989748;28;20030;-84
2022/11/27 09:43:55;;;;;;;10.63;6.85;;;7.70;61.60;;;;;;4968014;28;20391;-84
2022/11/27 09:46:37;;;;;;;13.00;7.72;;;7.80;60.40;;;;;;4967510;28;20031;-84
2022/11/27 09:49:08;;;;;;;9.88;5.68;;;7.90;59.30;;;;;;4968072;28;20198;-84
2022/11/27 09:51:41;;;;;;;10.13;5.93;;;8.00;58.70;;;;;;4965643;28;20117;-86
2022/11/27 09:54:15;;;;;;;10.32;5.35;;;7.80;58.60;;;;;;4968484;28;20030;-86
2022/11/27 09:56:44;;;;;;;9.32;5.18;;;7.70;57.40;;;;;;4965475;28;20059;-85
2022/11/27 09:59:19;;;;;;;10.00;5.18;;;7.80;58.30;;;;;;4964865;28;20428;-86
2022/11/27 10:01:45;;;;;;;13.15;6.28;;;8.00;58.00;;;;;;4968266;28;20027;-84
2022/11/27 10:04:17;;;;;;;9.20;4.95;;;8.30;57.30;;;;;;4969058;28;20034;-85
2022/11/27 10:07:03;;;;;;;10.32;4.50;;;8.70;54.80;;;;;;4968715;28;20078;-84
2022/11/27 10:09:54;;;;;;;10.93;4.20;;;9.00;52.20;;;;;;4969232;28;20110;-86
2022/11/27 10:12:25;;;;;;;4.82;3.35;;;9.20;50.20;;;;;;4974484;28;20038;-83
2022/11/27 10:15:22;;;;;;;5.32;3.35;;;9.30;49.50;;;;;;4968970;28;20065;-85
2022/11/27 10:17:54;;;;;;;3.90;2.58;;;9.40;50.00;;;;;;4977238;28;20101;-85
2022/11/27 10:20:43;;;;;;;7.32;3.20;;;9.70;49.10;;;;;;4994974;28;20025;-85
2022/11/27 10:23:36;;;;;;;5.32;2.58;;;10.00;48.20;;;;;;4977623;28;20057;-85
2022/11/27 10:26:13;;;;;;;2.80;1.65;;;10.30;45.40;;;;;;4977122;28;20117;-84
2022/11/27 10:29:01;;;;;;;2.97;1.45;;;10.60;43.40;;;;;;4977254;28;20045;-85
2022/11/27 10:31:41;;;;;;;3.03;1.40;;;10.80;41.70;;;;;;4977506;28;20109;-85
2022/11/27 10:34:19;;;;;;;4.80;1.50;;;10.90;41.80;;;;;;4977807;28;20098;-85
2022/11/27 10:36:48;;;;;;;2.25;1.70;;;10.90;40.60;;;;;;4994974;28;20101;-84
2022/11/27 10:39:25;;;;;;;2.67;1.70;;;11.00;41.00;;;;;;4977225;28;20475;-85
2022/11/27 10:41:58;;;;;;;4.47;1.88;;;11.10;40.50;;;;;;4977405;28;20022;-86
2022/11/27 10:44:39;;;;;;;2.47;1.58;;;11.20;40.50;;;;;;4977335;28;20139;-84
2022/11/27 10:47:08;;;;;;;3.03;1.40;;;11.40;40.30;;;;;;4976973;28;20049;-84
2022/11/27 10:49:38;;;;;;;1.40;1.13;;;11.50;39.20;;;;;;4994707;28;20434;-86
2022/11/27 10:52:04;;;;;;;2.22;1.30;;;11.60;38.40;;;;;;4977055;28;20036;-85
2022/11/27 10:54:36;;;;;;;2.13;1.20;;;11.80;38.40;;;;;;4966976;28;20382;-85
2022/11/27 10:57:17;;;;;;;1.95;1.20;;;11.90;37.20;;;;;;4967051;28;20023;-85
2022/11/27 10:59:52;;;;;;;2.38;1.13;;;12.20;36.70;;;;;;4967340;28;20050;-87
2022/11/27 11:02:31;;;;;;;;;;;12.60;35.20;;;;;;4963064;28;20102;-88
2022/11/27 11:04:57;;;;;;;2.25;0.95;;;12.90;34.20;;;;;;4958545;28;20429;-86
2022/11/27 11:07:28;;;;;;;1.48;1.17;;;13.30;33.70;;;;;;4960327;28;20031;-87
2022/11/27 11:09:55;;;;;;;2.90;1.20;;;13.70;33.50;;;;;;4965165;28;20475;-86
2022/11/27 11:12:22;;;;;;;1.95;1.42;;;13.80;32.00;;;;;;4966231;28;20536;-87
2022/11/27 11:14:57;;;;;;;3.42;1.35;;;13.70;31.80;;;;;;4965097;28;20023;-86
2022/11/27 11:17:33;;;;;;;1.88;1.08;;;13.60;32.60;;;;;;4966272;28;20022;-86
2022/11/27 11:19:58;;;;;;;2.22;0.93;;;13.30;32.90;;;;;;4966662;28;20030;-85
2022/11/27 11:22:24;;;;;;;2.88;0.80;;;13.20;33.00;;;;;;4968364;28;20028;-87
2022/11/27 11:24:53;;;;;;;1.88;0.90;;;13.10;33.30;;;;;;4963169;28;20043;-87
2022/11/27 11:27:28;;;;;;;1.90;1.05;;;13.00;33.60;;;;;;4983973;28;20026;-88
2022/11/27 11:29:58;;;;;;;1.50;1.08;;;13.40;32.90;;;;;;4963076;28;20067;-88
2022/11/27 11:32:31;;;;;;;9.88;5.85;;;13.70;33.00;;;;;;4958313;28;20069;-87
2022/11/27 11:35:07;;;;;;;10.68;5.47;;;13.40;39.70;;;;;;4958390;28;20495;-87
2022/11/27 11:37:34;;;;;;;10.07;6.00;;;13.30;40.40;;;;;;4958521;28;20022;-86
2022/11/27 11:40:03;;;;;;;7.95;5.00;;;13.20;42.00;;;;;;4963579;28;20030;-87
2022/11/27 11:42:32;;;;;;;6.32;3.45;;;12.80;43.60;;;;;;4964453;28;20035;-85
2022/11/27 11:45:09;;;;;;;3.40;1.85;;;12.80;42.70;;;;;;4967752;28;20023;-87
2022/11/27 11:47:43;;;;;;;3.17;1.95;;;12.60;40.20;;;;;;4959250;28;20042;-87
2022/11/27 11:50:13;;;;;;;4.67;2.10;;;12.30;38.90;;;;;;4970754;28;20022;-87
2022/11/27 11:52:53;;;;;;;4.40;1.80;;;12.20;39.50;;;;;;4964928;28;20023;-86
2022/11/27 11:55:28;;;;;;;5.05;1.33;;;12.10;40.20;;;;;;4980702;28;20049;-86
2022/11/27 11:58:03;;;;;;;3.35;1.42;;;11.80;39.30;;;;;;4996185;28;20039;-85
2022/11/27 12:00:49;;;;;;;2.10;1.20;;;11.50;39.30;;;;;;4962861;28;20058;-85
2022/11/27 12:03:26;;;;;;;3.50;1.55;;;11.10;40.10;;;;;;4957543;28;20054;-84
2022/11/27 12:06:16;;;;;;;2.80;1.77;;;10.90;41.10;;;;;;4974834;28;20027;-87
2022/11/27 12:09:09;;;;;;;2.03;1.48;;;10.60;41.50;;;;;;4957372;28;20521;-87
2022/11/27 12:11:42;;;;;;;4.03;1.63;;;10.60;42.00;;;;;;4957479;28;20026;-86
2022/11/27 12:14:26;;;;;;;2.85;1.70;;;11.20;41.80;;;;;;4957388;28;20034;-87
2022/11/27 12:17:21;;;;;;;2.63;1.80;;;12.30;39.60;;;;;;4974923;28;20023;-87
2022/11/27 12:19:58;;;;;;;1.75;1.20;;;12.70;37.30;;;;;;4957217;28;20027;-86
2022/11/27 12:23:02;;;;;;;2.67;1.60;;;13.40;36.30;;;;;;4976887;28;20026;-85
2022/11/27 12:25:32;;;;;;;4.35;1.60;;;13.80;33.80;;;;;;4960856;28;20490;-86
2022/11/27 12:28:31;;;;;;;2.08;1.63;;;13.90;34.40;;;;;;4961117;28;20042;-86
2022/11/27 12:31:08;;;;;;;2.42;1.30;;;14.30;33.60;;;;;;4960963;28;20042;-88
2022/11/27 12:33:58;;;;;;;7.55;4.00;;;14.80;33.00;;;;;;4960845;28;20049;-87
2022/11/27 12:37:05;;;;;;;8.15;4.63;;;15.00;37.50;;;;;;4961053;28;20023;-84
2022/11/27 12:39:36;;;;;;;;;;;15.10;38.90;;;;;;4976182;28;20030;-84
2022/11/27 12:42:21;;;;;;;6.07;4.25;;;16.30;38.30;;;;;;4978596;28;20008;-90
2022/11/27 12:44:50;;;;;;;6.82;3.92;;;17.70;35.60;;;;;;4976784;28;20030;-85
2022/11/27 12:47:42;;;;;;;5.15;3.45;;;18.70;33.20;;;;;;4962571;28;20070;-84
2022/11/27 12:50:18;;;;;;;8.40;3.80;;;19.80;31.70;;;;;;4983248;28;20033;-89
2022/11/27 12:52:56;;;;;;;4.78;3.28;;;21.80;28.70;;;;;;4964693;28;20026;-85
2022/11/27 12:55:27;;;;;;;3.70;2.60;;;24.10;24.20;;;;;;4983625;28;20014;-81
2022/11/27 12:57:59;;;;;;;2.78;2.20;;;25.10;18.30;;;;;;4973161;28;20034;-82
2022/11/27 13:00:28;;;;;;;2.55;2.00;;;25.40;15.90;;;;;;4961466;28;20072;-85
2022/11/27 13:03:14;;;;;;;2.53;1.90;;;24.40;15.70;;;;;;4978097;28;20029;-84
2022/11/27 13:05:58;;;;;;;4.35;2.60;;;23.00;17.00;;;;;;4977397;28;20471;-86
2022/11/27 13:08:44;;;;;;;3.92;2.75;;;21.40;18.70;;;;;;4979040;28;20030;-84
2022/11/27 13:11:14;;;;;;;4.50;2.58;;;18.90;21.70;;;;;;4980341;28;20023;-78